createdAt,value
2022-09-23T00:01:26.919Z,31.08
2022-09-23T00:06:23.893Z,32.35
2022-09-23T00:08:52.391Z,29.08
2022-09-23T00:11:29.781Z,35.90
2022-09-23T00:13:59.851Z,39.25
2022-09-23T00:16:34.278Z,41.00
2022-09-23T00:19:03.176Z,35.45
2022-09-23T00:21:31.180Z,37.28
2022-09-23T00:28:55.166Z,29.45
2022-09-23T00:31:26.253Z,34.22
2022-09-23T00:33:59.441Z,30.70
2022-09-23T00:36:30.556Z,31.60
2022-09-23T00:38:58.753Z,31.77
2022-09-23T00:41:27.465Z,33.72
2022-09-23T00:43:58.536Z,22.48
2022-09-23T00:46:44.446Z,35.05
2022-09-23T00:49:29.500Z,31.67
2022-09-23T00:52:07.364Z,27.33
2022-09-23T00:59:33.749Z,21.75
2022-09-23T01:02:03.641Z,25.88
2022-09-23T01:04:32.188Z,33.17
2022-09-23T01:07:00.376Z,24.65
2022-09-23T01:12:07.739Z,24.35
2022-09-23T01:15:00.508Z,30.55
2022-09-23T01:17:50.510Z,19.55
2022-09-23T01:20:55.934Z,24.98
2022-09-23T01:24:02.514Z,16.95
2022-09-23T01:27:04.078Z,16.63
2022-09-23T01:29:41.202Z,15.52
2022-09-23T01:32:35.608Z,20.13
2022-09-23T01:35:21.339Z,19.08
2022-09-23T01:38:03.708Z,22.05
2022-09-23T01:40:40.762Z,17.20
2022-09-23T01:43:11.859Z,22.80
2022-09-23T01:45:44.565Z,17.02
2022-09-23T01:48:14.069Z,21.67
2022-09-23T01:50:58.461Z,20.45
2022-09-23T01:53:51.371Z,22.55
2022-09-23T01:56:30.506Z,24.75
2022-09-23T01:59:31.205Z,21.13
2022-09-23T02:02:19.412Z,23.35
2022-09-23T02:05:03.834Z,20.40
2022-09-23T02:07:41.789Z,21.20
2022-09-23T02:10:24.492Z,25.27
2022-09-23T02:12:57.347Z,22.38
2022-09-23T02:15:31.846Z,21.05
2022-09-23T02:18:17.239Z,25.42
2022-09-23T02:20:47.341Z,21.80
2022-09-23T02:23:29.977Z,23.95
2022-09-23T02:26:08.899Z,23.58
2022-09-23T02:28:48.614Z,28.63
2022-09-23T02:31:34.824Z,26.80
2022-09-23T02:34:05.054Z,24.65
2022-09-23T02:36:47.109Z,21.48
2022-09-23T02:39:15.219Z,28.63
2022-09-23T02:44:20.319Z,22.25
2022-09-23T02:46:52.548Z,22.63
2022-09-23T02:49:29.744Z,25.75
2022-09-23T02:52:00.431Z,20.45
2022-09-23T02:54:29.258Z,21.17
2022-09-23T02:56:57.704Z,23.48
2022-09-23T02:59:25.224Z,22.30
2022-09-23T03:01:54.500Z,24.02
2022-09-23T03:04:31.684Z,20.88
2022-09-23T03:07:08.279Z,28.50
2022-09-23T03:09:38.825Z,23.88
2022-09-23T03:12:12.436Z,23.27
2022-09-23T03:14:53.691Z,24.33
2022-09-23T03:17:54.633Z,25.42
2022-09-23T03:20:22.613Z,24.05
2022-09-23T03:22:56.903Z,21.25
2022-09-23T03:25:27.160Z,22.92
2022-09-23T03:28:01.618Z,22.63
2022-09-23T03:30:31.522Z,27.75
2022-09-23T03:33:01.077Z,22.95
2022-09-23T03:35:31.542Z,24.55
2022-09-23T03:38:17.769Z,19.77
2022-09-23T03:40:51.134Z,23.63
2022-09-23T03:43:19.706Z,22.33
2022-09-23T03:45:47.625Z,20.55
2022-09-23T03:50:43.484Z,17.27
2022-09-23T03:53:14.235Z,18.02
2022-09-23T03:55:41.691Z,21.75
2022-09-23T03:58:09.289Z,18.33
2022-09-23T04:00:37.501Z,13.52
2022-09-23T04:03:09.535Z,12.18
2022-09-23T04:05:39.537Z,13.98
2022-09-23T04:08:07.215Z,17.05
2022-09-23T04:10:35.248Z,21.55
2022-09-23T04:13:03.149Z,19.95
2022-09-23T04:15:30.940Z,16.38
2022-09-23T04:17:59.729Z,16.38
2022-09-23T04:20:28.995Z,16.80
2022-09-23T04:22:57.025Z,17.90
2022-09-23T04:25:24.790Z,14.98
2022-09-23T04:27:52.898Z,17.15
2022-09-23T04:30:21.029Z,20.92
2022-09-23T04:32:49.041Z,18.17
2022-09-23T04:35:16.878Z,21.58
2022-09-23T04:37:47.414Z,18.63
2022-09-23T04:40:15.228Z,20.17
2022-09-23T04:42:43.175Z,22.92
2022-09-23T04:45:11.330Z,19.20
2022-09-23T04:50:07.554Z,17.77
2022-09-23T04:52:35.460Z,19.13
2022-09-23T04:55:03.024Z,20.65
2022-09-23T04:57:31.053Z,19.13
2022-09-23T04:59:59.023Z,17.05
2022-09-23T05:02:28.374Z,15.73
2022-09-23T05:04:56.319Z,15.60
2022-09-23T05:07:24.554Z,17.35
2022-09-23T05:09:52.104Z,17.35
2022-09-23T05:12:20.213Z,20.52
2022-09-23T05:14:48.061Z,20.35
2022-09-23T05:17:15.970Z,25.88
2022-09-23T05:19:43.931Z,25.80
2022-09-23T05:22:12.067Z,20.63
2022-09-23T05:27:08.044Z,19.48
2022-09-23T05:29:36.178Z,17.90
2022-09-23T05:34:32.365Z,18.67
2022-09-23T05:36:59.955Z,22.73
2022-09-23T05:39:27.583Z,16.55
2022-09-23T05:41:55.683Z,12.18
2022-09-23T05:46:50.758Z,17.63
2022-09-23T05:49:18.429Z,14.25
2022-09-23T05:51:46.512Z,19.02
2022-09-23T05:56:42.337Z,20.70
2022-09-23T05:59:10.388Z,17.55
2022-09-23T06:01:38.665Z,10.82
2022-09-23T06:04:08.240Z,13.30
2022-09-23T06:06:41.689Z,9.98
2022-09-23T06:09:13.773Z,17.55
2022-09-23T06:11:42.781Z,15.40
2022-09-23T06:14:13.271Z,17.20
2022-09-23T06:16:41.379Z,17.00
2022-09-23T06:21:40.452Z,15.75
2022-09-23T06:24:09.381Z,16.05
2022-09-23T06:26:38.306Z,15.25
2022-09-23T06:29:12.409Z,13.70
2022-09-23T06:31:41.599Z,15.45
2022-09-23T06:34:14.591Z,18.05
2022-09-23T06:36:45.501Z,17.52
2022-09-23T06:39:15.008Z,12.55
2022-09-23T06:41:43.568Z,10.45
2022-09-23T06:44:15.159Z,13.77
2022-09-23T06:46:44.538Z,11.10
2022-09-23T06:49:13.065Z,13.20
2022-09-23T06:51:41.455Z,14.02
2022-09-23T06:54:09.674Z,14.55
2022-09-23T06:56:39.732Z,13.15
2022-09-23T06:59:10.928Z,13.48
2022-09-23T07:01:39.194Z,13.05
2022-09-23T07:04:07.944Z,15.23
2022-09-23T07:06:36.318Z,14.68
2022-09-23T07:09:05.043Z,13.15
2022-09-23T07:11:33.059Z,14.20
2022-09-23T07:16:28.646Z,9.60
2022-09-23T07:21:24.418Z,12.45
2022-09-23T07:23:52.723Z,13.73
2022-09-23T07:26:21.182Z,13.95
2022-09-23T07:28:54.531Z,12.18
2022-09-23T07:31:35.690Z,11.13
2022-09-23T07:34:08.527Z,7.88
2022-09-23T07:36:40.835Z,11.95
2022-09-23T07:39:12.272Z,12.45
2022-09-23T07:41:41.847Z,11.57
2022-09-23T07:44:11.313Z,10.23
2022-09-23T07:46:40.123Z,12.20
2022-09-23T07:49:08.581Z,12.55
2022-09-23T07:51:38.397Z,10.88
2022-09-23T07:54:10.068Z,11.15
2022-09-23T07:56:38.905Z,10.40
2022-09-23T07:59:08.875Z,5.85
2022-09-23T08:01:39.922Z,10.80
2022-09-23T08:04:17.838Z,8.52
2022-09-23T08:09:21.290Z,9.10
2022-09-23T08:11:50.919Z,5.68
2022-09-23T08:14:19.295Z,5.25
2022-09-23T08:16:47.748Z,7.95
2022-09-23T08:19:17.899Z,8.80
2022-09-23T08:21:52.179Z,9.40
2022-09-23T08:24:22.110Z,8.07
2022-09-23T08:26:51.442Z,9.63
2022-09-23T08:29:21.590Z,6.28
2022-09-23T08:31:50.207Z,5.40
2022-09-23T08:34:19.999Z,6.63
2022-09-23T08:36:48.287Z,7.72
2022-09-23T08:39:17.989Z,6.32
2022-09-23T08:42:13.403Z,7.00
2022-09-23T08:44:50.804Z,5.65
2022-09-23T08:47:24.945Z,4.00
2022-09-23T08:50:07.557Z,4.68
2022-09-23T08:52:43.725Z,4.90
2022-09-23T08:55:15.472Z,4.20
2022-09-23T08:58:23.274Z,5.75
2022-09-23T09:00:55.074Z,3.10
2022-09-23T09:03:36.758Z,3.53
2022-09-23T09:06:05.109Z,3.90
2022-09-23T09:08:37.124Z,3.47
2022-09-23T09:11:08.144Z,3.33
2022-09-23T09:13:52.087Z,4.43
2022-09-23T09:16:59.612Z,3.42
2022-09-23T09:19:55.764Z,4.07
2022-09-23T09:22:48.694Z,3.33
2022-09-23T09:25:40.067Z,2.85
2022-09-23T09:28:45.052Z,2.47
2022-09-23T09:31:14.221Z,3.03
2022-09-23T09:33:58.841Z,4.05
2022-09-23T09:36:37.159Z,3.20
2022-09-23T09:39:05.709Z,2.42
2022-09-23T09:41:33.958Z,2.80
2022-09-23T09:44:08.938Z,2.88
2022-09-23T09:46:45.262Z,2.90
2022-09-23T09:49:24.927Z,2.97
2022-09-23T09:52:13.031Z,3.03
2022-09-23T09:54:40.743Z,2.13
2022-09-23T09:59:44.331Z,2.63
2022-09-23T10:02:34.124Z,2.83
2022-09-23T10:05:08.865Z,2.67
2022-09-23T10:07:38.258Z,3.00
2022-09-23T10:10:32.304Z,2.90
2022-09-23T10:13:17.132Z,4.72
2022-09-23T10:15:45.763Z,3.13
2022-09-23T10:18:25.174Z,2.80
2022-09-23T10:20:59.577Z,2.28
2022-09-23T10:23:29.271Z,2.17
2022-09-23T10:26:03.681Z,2.38
2022-09-23T10:28:48.960Z,2.30
2022-09-23T10:31:34.322Z,2.88
2022-09-23T10:34:25.727Z,2.67
2022-09-23T10:37:06.131Z,2.92
2022-09-23T10:39:55.458Z,2.75
2022-09-23T10:43:08.245Z,2.92
2022-09-23T10:45:59.328Z,1.80
2022-09-23T10:49:02.348Z,3.03
2022-09-23T10:51:46.903Z,2.38
2022-09-23T10:54:32.115Z,2.45
2022-09-23T10:57:29.422Z,1.98
2022-09-23T11:00:08.600Z,2.10
2022-09-23T11:02:54.341Z,1.92
2022-09-23T11:06:01.395Z,2.05
2022-09-23T11:08:41.162Z,1.77
2022-09-23T11:11:54.936Z,1.85
2022-09-23T11:14:51.725Z,2.42
2022-09-23T11:17:48.749Z,2.30
2022-09-23T11:20:41.429Z,1.63
2022-09-23T11:23:46.982Z,2.60
2022-09-23T11:26:47.088Z,2.10
2022-09-23T11:29:17.690Z,1.55
2022-09-23T11:31:47.539Z,1.30
2022-09-23T11:34:54.955Z,1.33
2022-09-23T11:37:53.025Z,1.33
2022-09-23T11:40:35.205Z,1.55
2022-09-23T11:43:18.976Z,1.35
2022-09-23T11:46:31.502Z,1.50
2022-09-23T11:49:09.690Z,1.10
2022-09-23T11:52:10.613Z,1.10
2022-09-23T11:54:54.736Z,1.50
2022-09-23T11:57:51.943Z,1.05
2022-09-23T12:00:22.386Z,1.73
2022-09-23T12:03:01.741Z,2.10
2022-09-23T12:05:40.529Z,1.65
2022-09-23T12:08:26.356Z,1.40
2022-09-23T12:11:16.598Z,1.70
2022-09-23T12:13:59.111Z,1.30
2022-09-23T12:16:29.796Z,1.70
2022-09-23T12:19:21.959Z,0.90
2022-09-23T12:21:59.460Z,1.27
2022-09-23T12:24:39.332Z,1.00
2022-09-23T12:27:11.975Z,1.05
2022-09-23T12:29:41.555Z,1.35
2022-09-23T12:32:18.575Z,1.20
2022-09-23T12:34:50.453Z,1.75
2022-09-23T12:37:38.335Z,1.52
2022-09-23T12:40:16.713Z,1.27
2022-09-23T12:42:46.498Z,1.23
2022-09-23T12:45:32.827Z,1.20
2022-09-23T12:48:03.420Z,1.45
2022-09-23T12:50:56.090Z,1.50
2022-09-23T12:53:36.122Z,1.20
2022-09-23T12:56:23.571Z,1.60
2022-09-23T12:58:51.162Z,1.90
2022-09-23T13:01:23.320Z,1.40
2022-09-23T13:04:15.197Z,1.02
2022-09-23T13:06:58.846Z,1.38
2022-09-23T13:09:30.244Z,0.82
2022-09-23T13:12:04.366Z,1.05
2022-09-23T13:14:33.764Z,0.88
2022-09-23T13:17:01.762Z,0.90
2022-09-23T13:19:31.690Z,1.13
2022-09-23T13:22:07.707Z,1.30
2022-09-23T13:24:47.662Z,1.08
2022-09-23T13:27:20.269Z,1.27
2022-09-23T13:30:05.489Z,0.93
2022-09-23T13:32:37.701Z,1.25
2022-09-23T13:35:18.770Z,1.13
2022-09-23T13:37:47.933Z,2.00
2022-09-23T13:40:27.179Z,1.27
2022-09-23T13:42:59.551Z,1.63
2022-09-23T13:45:28.925Z,1.58
2022-09-23T13:48:06.150Z,1.40
2022-09-23T13:50:38.548Z,0.82
2022-09-23T13:53:10.609Z,1.05
2022-09-23T13:55:40.202Z,0.75
2022-09-23T13:58:20.972Z,1.73
2022-09-23T14:00:51.705Z,1.02
2022-09-23T14:03:26.510Z,1.55
2022-09-23T14:06:04.506Z,1.55
2022-09-23T14:08:32.850Z,1.33
2022-09-23T14:11:01.763Z,1.60
2022-09-23T14:13:32.314Z,1.52
2022-09-23T14:16:03.294Z,1.67
2022-09-23T14:18:38.959Z,1.45
2022-09-23T14:21:25.875Z,1.40
2022-09-23T14:23:53.524Z,0.73
2022-09-23T14:26:24.512Z,1.17
2022-09-23T14:28:52.887Z,1.75
2022-09-23T14:31:20.764Z,1.45
2022-09-23T14:36:37.355Z,1.27
2022-09-23T14:39:16.695Z,1.08
2022-09-23T14:41:45.596Z,1.15
2022-09-23T14:44:26.694Z,1.48
2022-09-23T14:46:58.418Z,1.85
2022-09-23T14:49:27.119Z,1.45
2022-09-23T14:52:00.890Z,1.17
2022-09-23T14:54:40.790Z,0.85
2022-09-23T14:57:22.747Z,0.95
2022-09-23T14:59:56.061Z,0.73
2022-09-23T15:02:39.410Z,0.88
2022-09-23T15:05:21.883Z,0.80
2022-09-23T15:07:58.130Z,0.80
2022-09-23T15:10:34.201Z,1.00
2022-09-23T15:13:15.511Z,1.20
2022-09-23T15:15:44.297Z,1.30
2022-09-23T15:18:18.831Z,1.08
2022-09-23T15:21:10.228Z,1.05
2022-09-23T15:23:58.660Z,1.20
2022-09-23T15:26:41.141Z,1.73
2022-09-23T15:29:10.083Z,1.45
2022-09-23T15:31:37.975Z,1.55
2022-09-23T15:34:06.132Z,1.85
2022-09-23T15:39:03.581Z,1.50
2022-09-23T15:41:33.754Z,1.17
2022-09-23T15:44:29.655Z,1.60
2022-09-23T15:47:01.228Z,1.40
2022-09-23T15:49:34.470Z,1.25
2022-09-23T15:52:04.608Z,1.52
2022-09-23T15:54:33.843Z,1.33
2022-09-23T15:57:02.282Z,0.90
2022-09-23T15:59:33.698Z,1.00
2022-09-23T16:02:06.779Z,1.30
2022-09-23T16:04:36.072Z,1.10
2022-09-23T16:07:05.693Z,1.00
2022-09-23T16:09:33.410Z,1.00
2022-09-23T16:12:03.273Z,1.52
2022-09-23T16:14:31.256Z,1.50
2022-09-23T16:19:27.014Z,1.45
2022-09-23T16:24:27.378Z,1.27
2022-09-23T16:27:00.122Z,1.00
2022-09-23T16:29:28.545Z,1.63
2022-09-23T16:31:56.049Z,1.30
2022-09-23T16:34:23.794Z,1.90
2022-09-23T16:36:52.184Z,1.33
2022-09-23T16:39:20.813Z,1.30
2022-09-23T16:41:48.767Z,1.35
2022-09-23T16:44:16.680Z,1.38
2022-09-23T16:49:12.483Z,1.15
2022-09-23T16:54:13.297Z,1.48
2022-09-23T16:56:46.512Z,1.60
2022-09-23T16:59:15.642Z,2.28
2022-09-23T17:02:02.235Z,1.92
2022-09-23T17:04:30.329Z,1.60
2022-09-23T17:06:58.345Z,1.20
2022-09-23T17:09:28.525Z,1.50
2022-09-23T17:12:26.126Z,2.13
2022-09-23T17:17:22.428Z,1.05
2022-09-23T17:19:50.110Z,1.63
2022-09-23T17:22:17.682Z,1.80
2022-09-23T17:24:45.433Z,1.15
2022-09-23T17:27:13.439Z,1.85
2022-09-23T17:29:41.437Z,1.70
2022-09-23T17:34:37.565Z,1.80
2022-09-23T17:39:33.453Z,1.50
2022-09-23T17:44:32.341Z,1.10
2022-09-23T17:47:00.847Z,1.40
2022-09-23T17:49:29.121Z,1.27
2022-09-23T17:51:57.703Z,1.90
2022-09-23T17:54:25.206Z,1.90
2022-09-23T17:56:53.035Z,2.40
2022-09-23T17:59:20.777Z,1.80
2022-09-23T18:06:44.089Z,1.70
2022-09-23T18:09:12.607Z,1.70
2022-09-23T18:11:43.687Z,1.77
2022-09-23T18:14:22.954Z,1.30
2022-09-23T18:16:53.713Z,1.48
2022-09-23T18:19:23.514Z,1.90
2022-09-23T18:21:54.698Z,1.70
2022-09-23T18:24:33.159Z,2.00
2022-09-23T18:31:59.310Z,1.98
2022-09-23T18:34:28.011Z,1.90
2022-09-23T18:36:56.267Z,1.55
2022-09-23T18:39:24.066Z,1.63
2022-09-23T18:41:51.880Z,1.63
2022-09-23T18:44:20.069Z,2.03
2022-09-23T18:46:47.656Z,2.00
2022-09-23T18:49:34.353Z,1.98
2022-09-23T18:52:02.861Z,1.60
2022-09-23T18:54:31.744Z,1.90
2022-09-23T18:56:59.544Z,2.10
2022-09-23T18:59:29.893Z,1.77
2022-09-23T19:01:57.982Z,1.95
2022-09-23T19:04:27.390Z,2.03
2022-09-23T19:06:56.823Z,2.45
2022-09-23T19:09:25.067Z,2.17
2022-09-23T19:11:53.750Z,2.33
2022-09-23T19:14:22.359Z,2.40
2022-09-23T19:16:50.726Z,3.05
2022-09-23T19:19:18.369Z,1.85
2022-09-23T19:21:46.453Z,2.17
2022-09-23T19:24:20.628Z,2.60
2022-09-23T19:26:48.867Z,2.60
2022-09-23T19:29:19.857Z,2.97
2022-09-23T19:31:48.808Z,1.50
2022-09-23T19:34:23.819Z,3.33
2022-09-23T19:36:53.022Z,2.47
2022-09-23T19:39:23.063Z,2.45
2022-09-23T19:41:52.752Z,2.45
2022-09-23T19:44:20.835Z,2.45
2022-09-23T19:49:25.266Z,3.08
2022-09-23T19:51:56.086Z,1.77
2022-09-23T19:54:26.996Z,2.67
2022-09-23T19:56:54.858Z,3.35
2022-09-23T19:59:22.632Z,3.28
2022-09-23T20:01:50.896Z,3.72
2022-09-23T20:06:46.434Z,3.80
2022-09-23T20:09:14.592Z,4.00
2022-09-23T20:14:13.209Z,2.20
2022-09-23T20:16:41.384Z,4.18
2022-09-23T20:19:10.011Z,4.43
2022-09-23T20:21:37.702Z,4.18
2022-09-23T20:24:07.121Z,4.03
2022-09-23T20:26:54.080Z,4.72
2022-09-23T20:29:21.741Z,4.70
2022-09-23T20:31:49.837Z,2.80
2022-09-23T20:34:18.623Z,4.43
2022-09-23T20:36:46.308Z,4.30
2022-09-23T20:39:14.106Z,4.25
2022-09-23T20:41:42.529Z,4.78
2022-09-23T20:44:14.280Z,4.82
2022-09-23T20:46:48.633Z,6.00
2022-09-23T20:49:17.865Z,5.55
2022-09-23T20:51:48.091Z,5.80
2022-09-23T20:54:19.196Z,7.40
2022-09-23T20:56:47.888Z,5.20
2022-09-23T20:59:17.879Z,6.35
2022-09-23T21:01:47.625Z,6.30
2022-09-23T21:04:15.883Z,6.70
2022-09-23T21:06:43.740Z,7.32
2022-09-23T21:09:11.507Z,6.65
2022-09-23T21:11:39.462Z,9.82
2022-09-23T21:14:07.327Z,8.80
2022-09-23T21:16:36.210Z,9.45
2022-09-23T21:19:04.617Z,9.73
2022-09-23T21:21:32.958Z,9.65
2022-09-23T21:26:50.473Z,10.10
2022-09-23T21:29:18.505Z,10.55
2022-09-23T21:31:48.474Z,10.40
2022-09-23T21:34:16.742Z,10.88
2022-09-23T21:36:46.283Z,11.73
2022-09-23T21:39:14.632Z,10.80
2022-09-23T21:41:42.703Z,11.32
2022-09-23T21:46:38.517Z,11.00
2022-09-23T21:51:39.222Z,10.93
2022-09-23T21:54:15.887Z,8.40
2022-09-23T21:56:44.857Z,7.78
2022-09-23T21:59:14.172Z,7.50
2022-09-23T22:01:45.068Z,6.93
2022-09-23T22:04:19.594Z,6.53
2022-09-23T22:06:49.087Z,6.68
2022-09-23T22:09:19.766Z,6.82
2022-09-23T22:12:08.752Z,6.25
2022-09-23T22:14:37.456Z,7.35
2022-09-23T22:17:06.899Z,9.05
2022-09-23T22:19:40.212Z,5.68
2022-09-23T22:22:15.449Z,7.82
2022-09-23T22:24:44.591Z,7.97
2022-09-23T22:27:16.325Z,8.15
2022-09-23T22:30:02.356Z,9.05
2022-09-23T22:32:43.674Z,7.80
2022-09-23T22:35:13.593Z,7.50
2022-09-23T22:37:41.629Z,7.95
2022-09-23T22:42:41.066Z,8.40
2022-09-23T22:45:10.337Z,6.97
2022-09-23T22:47:39.667Z,6.43
2022-09-23T22:50:09.203Z,9.27
2022-09-23T22:52:38.001Z,9.10
2022-09-23T22:55:08.291Z,10.35
2022-09-23T22:57:36.787Z,8.93
2022-09-23T23:00:06.259Z,6.70
2022-09-23T23:02:34.357Z,5.85
2022-09-23T23:09:59.063Z,9.45
2022-09-23T23:12:26.961Z,10.70
2022-09-23T23:14:54.933Z,10.75
2022-09-23T23:17:22.634Z,8.00
2022-09-23T23:19:50.880Z,6.82
2022-09-23T23:22:18.919Z,8.10
2022-09-23T23:24:46.556Z,7.60
2022-09-23T23:27:14.734Z,7.10
2022-09-23T23:32:10.778Z,7.05
2022-09-23T23:34:38.483Z,9.55
2022-09-23T23:37:07.227Z,10.02
2022-09-23T23:39:35.122Z,11.65
2022-09-23T23:42:04.897Z,11.77
2022-09-23T23:44:34.269Z,11.52
2022-09-23T23:47:02.052Z,9.40
2022-09-23T23:49:29.865Z,9.98
2022-09-23T23:51:57.938Z,10.25
2022-09-23T23:54:25.694Z,9.98
2022-09-23T23:56:53.295Z,9.60
2022-09-23T23:59:21.410Z,10.23
